Flight Track Log - Related Links

Times and Time Zones

All times are in EST time to prevent confusion due to time zone crossing. See the N449ND flight status page for this flight to view local times or setup timezone preferences in your user account.

Time Position Orientation Groundspeed Altitude Reporting Facility
EST Latitude Longitude Course Direction KTS MPH feet Rate Location/Type
Wed 09:19:42 AM 27.4997 -80.3828 347° North 101 116 400  Level Miami Center
Wed 09:20:42 AM 27.5011 -80.4061 274° West 94 108 3,000 650 Climbing Miami Center
Wed 09:21:42 AM 27.5069 -80.4275 287° West 83 96 1,700 -350 Descending Miami Center
Wed 09:22:42 AM 27.5128 -80.4489 287° West 83 96 2,300 600 Climbing Miami Center
Wed 09:23:42 AM 27.5247 -80.4703 302° West 78 90 2,900 350 Climbing Miami Center
Wed 09:24:00 AM 27.4975 -80.3726 347° North  Level Estimated
Wed 09:24:42 AM 27.5400 -80.4450 56° Northeast 69 79 3,000  Level Miami Center
Wed 09:25:00 AM 27.5014 -80.3737 347° North  Level FlightAware Approximate
Wed 09:25:42 AM 27.5408 -80.4097 88° East 90 104 3,000  Level Miami Center
Wed 09:26:42 AM 27.5353 -80.3769 101° East 107 123 3,100 50 Climbing Miami Center
Wed 09:27:42 AM 27.5342 -80.3369 92° East 112 129 3,100  Level Miami Center
Wed 09:28:42 AM 27.5289 -80.2994 99° East 112 129 3,100 -50 Level Miami Center
Wed 09:29:42 AM 27.5256 -80.2642 96° East 117 135 3,000 -50 Descending Miami Center
Wed 09:30:42 AM 27.5386 -80.2364 62° Northeast 111 128 3,000 -250 Level Miami Center
Wed 09:31:42 AM 27.5642 -80.2136 38° Northeast 106 122 2,500 -600 Descending Miami Center
Wed 09:32:42 AM 27.5867 -80.2356 319° Northwest 81 93 1,800 -400 Descending Miami Center
Wed 09:33:42 AM 27.6006 -80.2642 299° West 100 115 1,700  Descending Miami Center
Wed 09:34:42 AM 27.6106 -80.2900 294° West 106 122 1,800 50 Climbing Miami Center
Wed 09:35:42 AM 27.6203 -80.3161 293° West 106 122 1,800 -250 Level Miami Center
Wed 09:36:42 AM 27.6278 -80.3469 285° West 101 116 1,300 -450 Descending Miami Center
Wed 09:37:42 AM 27.6378 -80.3731 293° West 96 110 900 -400 Descending Miami Center
Wed 09:38:42 AM 27.6475 -80.3992 293° West 90 104 500 125 Descending Miami Center
Wed 09:40:06 AM 27.6614 -80.4347 294° West 90 104 1,200 542 Climbing Miami Center
Wed 09:41:06 AM 27.6628 -80.4606 273° West 90 104 1,800 400 Climbing Miami Center
Wed 09:42:06 AM 27.6619 -80.4886 268° West 85 98 2,000 100 Climbing Miami Center
Wed 09:43:06 AM 27.6614 -80.5144 269° West 90 104 2,000 250 Level Miami Center
Wed 09:44:06 AM 27.6628 -80.5450 273° West 90 104 2,500 500 Climbing Miami Center
Wed 09:45:06 AM 27.6619 -80.5683 268° West 85 98 3,000 300 Climbing Miami Center
Wed 09:46:06 AM 27.6411 -80.5722 189° South 68 78 3,100  Climbing Miami Center
Wed 09:47:06 AM 27.6161 -80.5667 169° South 94 108 3,000 -50 Descending Miami Center
Wed 09:48:06 AM 27.5914 -80.5589 164° South 101 116 3,000 50 Level Miami Center
Wed 09:49:06 AM 27.5711 -80.5372 137° Southeast 95 109 3,100  Climbing Miami Center
Wed 09:50:06 AM 27.5739 -80.5022 85° East 96 110 3,000 -50 Descending Miami Center
Wed 09:51:06 AM 27.5706 -80.4669 96° East 116 133 3,000  Level Miami Center
Wed 09:52:06 AM 27.5675 -80.4317 96° East 122 140 3,000  Level Miami Center
Wed 09:53:06 AM 27.5661 -80.3942 92° East 122 140 3,000 -150 Level Miami Center
Wed 09:54:06 AM 27.5650 -80.3544 92° East 122 140 2,700 -450 Descending Miami Center
Wed 09:55:06 AM 27.5597 -80.3167 99° East 122 140 2,100 -350 Descending Miami Center
Wed 09:56:06 AM 27.5606 -80.2839 88° East 117 135 2,000 -50 Descending Miami Center
Wed 09:57:06 AM 27.5592 -80.2489 93° East 117 135 2,000  Level Miami Center
Wed 09:58:06 AM 27.5581 -80.2089 92° East 117 135 2,000  Level Miami Center
Wed 09:59:06 AM 27.5528 -80.1736 100° East 117 135 2,000  Level Miami Center
Wed 10:00:06 AM 27.5533 -80.1386 89° East 111 128 2,000  Level Miami Center
Wed 10:01:06 AM 27.5458 -80.1078 105° East 111 128 2,000 50 Level Miami Center
Wed 10:02:06 AM 27.5339 -80.0794 115° Southeast 106 122 2,100 50 Climbing Miami Center
Wed 10:03:06 AM 27.5569 -80.0731 14° North 64 74 2,100 -50 Level Miami Center
Wed 10:04:06 AM 27.5597 -80.0450 84° East 64 74 2,000  Descending Miami Center
Wed 10:05:06 AM 27.5494 -80.1361 263° West 101 116 2,100 50 Climbing Miami Center
Wed 10:06:06 AM 27.5636 -80.1528 314° West 86 99 2,100  Level Miami Center
Wed 10:07:06 AM 27.5706 -80.1225 75° East 29 33 2,100 250 Level Miami Center
Wed 10:08:06 AM 27.5672 -80.0872 96° East 84 97 2,600 450 Climbing Miami Center
Wed 10:09:06 AM 27.5544 -80.0986 218° Southwest 54 62 3,000 250 Climbing Miami Center
Wed 10:10:06 AM 27.5517 -80.1244 263° West 75 86 3,100 50 Climbing Miami Center
Wed 10:11:06 AM 27.5594 -80.1481 290° West 83 96 3,100 -50 Level Miami Center
Wed 10:12:06 AM 27.5728 -80.1181 63° Northeast 49 56 3,000 -50 Descending Miami Center
Wed 10:13:06 AM 27.5650 -80.0872 106° East 87 100 3,000 50 Level Miami Center
Wed 10:14:06 AM 27.5561 -80.1081 244° Southwest 38 44 3,100 -50 Climbing Miami Center
Wed 10:15:06 AM 27.5514 -80.1361 259° West 90 104 2,900 -350 Descending Miami Center
Wed 10:16:06 AM 27.5261 -80.1425 193° South 88 101 2,400 -450 Descending Miami Center
Wed 10:17:06 AM 27.4969 -80.1508 194° South 100 115 2,000 -154 Descending Miami Center
Wed 10:18:42 AM 27.4567 -80.1661 199° South 81 93 2,000 -77 Level Miami Center
Wed 10:19:42 AM 27.4625 -80.1944 283° West 86 99 1,800 -200 Descending Miami Center
Wed 10:20:42 AM 27.4700 -80.2228 287° West 97 112 1,600 -100 Descending Miami Center
Wed 10:21:42 AM 27.4736 -80.2486 279° West 97 112 1,600  Level Miami Center
Wed 10:22:42 AM 27.4792 -80.2769 282° West 97 112 1,600 -250 Level Miami Center
Wed 10:23:42 AM 27.4850 -80.3050 283° West 86 99 1,100 -500 Descending Miami Center
Wed 10:24:42 AM 27.4906 -80.3286 285° West 86 99 600 -500 Descending Miami Center

Login

Don't have an account? Register now (free) for customized features, flight alerts, and more!